Asquith, Canada
Current Conditions -  °F | °C
As of 11:00 PM on Saturday 25 Oct 2014 (Local Time) from CYXE Reporting Station
Overcast Overcast  
Wind Chill: 35°   Ceiling: 25000
Heat Index: 43°   Visibility: 15mi
Dew Point: 28°   Wind: 16mph
Humidity: 57%   Direction: 110°ESE
Pressure: 29.75"   Gusts: 25mph
Location:  52.12°N, 107.22°W
Report Text: CYXE 260500Z 11014G22KT 15SM OVC250 06/M02 A2975 RMK CI8 PRESFR SLP094
Loading
Personal Weather Stations






























Interactive Weather Map
Tropical Storm Tracking
New forecast layout! Learn more

10-Day Weather Forecast

Advertisements
Track Severe Weather on mobile